createdAt,value
2019-01-24T00:03:54.175Z,29.17
2019-01-24T00:07:58.882Z,31.30
2019-01-24T00:12:03.582Z,30.97
2019-01-24T00:16:09.375Z,28.63
2019-01-24T00:20:16.049Z,28.70
2019-01-24T00:24:20.744Z,27.53
2019-01-24T00:28:25.447Z,29.00
2019-01-24T00:32:31.219Z,27.70
2019-01-24T00:36:35.913Z,30.37
2019-01-24T00:40:40.612Z,32.70
2019-01-24T00:44:45.322Z,29.73
2019-01-24T00:48:51.096Z,28.97
2019-01-24T00:52:55.794Z,31.27
2019-01-24T00:57:00.485Z,29.90
2019-01-24T01:01:05.176Z,28.70
2019-01-24T01:05:11.914Z,29.03
2019-01-24T01:09:16.612Z,28.30
2019-01-24T01:13:21.312Z,30.43
2019-01-24T01:17:26.010Z,30.33
2019-01-24T01:21:30.704Z,30.80
2019-01-24T01:25:35.406Z,29.90
2019-01-24T01:29:40.111Z,29.60
2019-01-24T01:33:44.814Z,29.30
2019-01-24T01:37:49.502Z,28.67
2019-01-24T01:41:54.204Z,28.13
2019-01-24T01:45:58.900Z,25.93
2019-01-24T01:50:06.198Z,27.47
2019-01-24T01:54:10.903Z,29.13
2019-01-24T01:58:15.589Z,27.97
2019-01-24T02:02:20.282Z,28.13
2019-01-24T02:06:24.977Z,26.37
2019-01-24T02:10:29.686Z,29.60
2019-01-24T02:14:34.391Z,26.90
2019-01-24T02:18:39.082Z,27.70
2019-01-24T02:22:43.786Z,28.23
2019-01-24T02:26:48.480Z,30.77
2019-01-24T02:30:53.178Z,27.67
2019-01-24T02:34:57.861Z,28.50
2019-01-24T02:39:02.562Z,31.63
2019-01-24T02:43:08.335Z,29.57
2019-01-24T02:47:13.035Z,28.20
2019-01-24T02:51:17.740Z,29.33
2019-01-24T02:55:22.431Z,28.50
2019-01-24T02:59:27.134Z,25.40
2019-01-24T03:03:31.826Z,31.00
2019-01-24T03:07:36.521Z,30.00
2019-01-24T03:11:41.216Z,25.87
2019-01-24T03:15:45.906Z,30.70
2019-01-24T03:19:50.601Z,29.53
2019-01-24T03:23:55.298Z,26.67
2019-01-24T03:28:00.003Z,30.73
2019-01-24T03:32:04.701Z,30.77
2019-01-24T03:36:09.397Z,33.93
2019-01-24T03:40:16.005Z,32.83
2019-01-24T03:44:20.705Z,33.13
2019-01-24T03:48:25.415Z,30.70
2019-01-24T03:52:30.108Z,32.00
2019-01-24T03:56:34.811Z,31.00
2019-01-24T04:00:39.513Z,30.93
2019-01-24T04:04:44.208Z,30.67
2019-01-24T04:08:48.909Z,29.27
2019-01-24T04:12:53.615Z,31.80
2019-01-24T04:16:58.307Z,28.57
2019-01-24T04:21:03.010Z,30.33
2019-01-24T04:25:08.253Z,28.70
2019-01-24T04:29:12.949Z,30.83
2019-01-24T04:33:17.638Z,30.80
2019-01-24T04:37:22.334Z,28.70
2019-01-24T04:41:28.203Z,28.80
2019-01-24T04:45:32.911Z,30.47
2019-01-24T04:49:37.614Z,29.53
2019-01-24T04:53:42.303Z,31.17
2019-01-24T04:57:47.076Z,30.17
2019-01-24T05:01:51.783Z,29.33
2019-01-24T05:05:56.483Z,30.23
2019-01-24T05:10:02.323Z,29.13
2019-01-24T05:14:07.144Z,28.57
2019-01-24T05:18:11.846Z,33.87
2019-01-24T05:22:16.548Z,29.47
2019-01-24T05:26:21.245Z,28.10
2019-01-24T05:30:26.315Z,28.27
2019-01-24T05:34:31.007Z,26.93
2019-01-24T05:38:35.704Z,29.00
2019-01-24T05:42:40.403Z,27.97
2019-01-24T05:46:45.107Z,29.77
2019-01-24T05:50:49.809Z,26.43
2019-01-24T05:54:54.502Z,29.37
2019-01-24T05:58:59.203Z,29.53
2019-01-24T06:03:04.668Z,29.43
2019-01-24T06:07:09.376Z,29.83
2019-01-24T06:11:14.069Z,29.30
2019-01-24T06:15:18.830Z,28.20
2019-01-24T06:19:23.539Z,28.57
2019-01-24T06:23:28.229Z,27.53
2019-01-24T06:27:33.999Z,31.60
2019-01-24T06:31:38.703Z,29.33
2019-01-24T06:35:48.695Z,29.73
2019-01-24T06:39:51.389Z,28.47
2019-01-24T06:43:56.089Z,31.30
2019-01-24T06:48:00.787Z,30.73
2019-01-24T06:52:05.492Z,32.40
2019-01-24T06:56:10.190Z,29.70
2019-01-24T07:00:17.029Z,33.63
2019-01-24T07:04:21.730Z,31.80
2019-01-24T07:08:26.425Z,30.87
2019-01-24T07:12:31.126Z,30.57
2019-01-24T07:16:36.787Z,29.37
2019-01-24T07:20:41.491Z,30.33
2019-01-24T07:24:46.190Z,30.83
2019-01-24T07:28:50.889Z,30.13
2019-01-24T07:32:55.586Z,27.70
2019-01-24T07:37:00.341Z,28.77
2019-01-24T07:41:05.051Z,27.67
2019-01-24T07:45:12.797Z,27.93
2019-01-24T07:49:17.490Z,29.03
2019-01-24T07:53:22.190Z,29.67
2019-01-24T07:57:28.523Z,31.17
2019-01-24T08:01:33.225Z,28.60
2019-01-24T08:05:38.014Z,27.43
2019-01-24T08:09:42.705Z,28.70
2019-01-24T08:13:47.418Z,28.47
2019-01-24T08:17:52.105Z,27.77
2019-01-24T08:21:57.870Z,29.43
2019-01-24T08:26:02.572Z,28.63
2019-01-24T08:30:10.533Z,29.43
2019-01-24T08:34:15.237Z,30.10
2019-01-24T08:38:19.941Z,29.40
2019-01-24T08:42:24.639Z,32.33
2019-01-24T08:46:29.353Z,31.27
2019-01-24T08:50:35.025Z,29.77
2019-01-24T08:54:39.734Z,30.07
2019-01-24T08:58:44.423Z,32.63
2019-01-24T09:02:49.657Z,33.73
2019-01-24T09:06:54.360Z,29.83
2019-01-24T09:10:59.056Z,32.30
2019-01-24T09:15:08.371Z,29.67
2019-01-24T09:19:13.058Z,29.90
2019-01-24T09:23:17.756Z,32.00
2019-01-24T09:27:22.470Z,29.60
2019-01-24T09:31:27.175Z,36.47
2019-01-24T09:35:31.864Z,32.37
2019-01-24T09:39:36.557Z,30.10
2019-01-24T09:43:41.249Z,29.73
2019-01-24T09:47:45.951Z,34.57
2019-01-24T09:51:50.661Z,31.93
2019-01-24T09:55:55.361Z,29.53
2019-01-24T10:00:00.047Z,30.53
2019-01-24T10:04:04.745Z,31.73
2019-01-24T10:08:09.444Z,30.57
2019-01-24T10:12:14.148Z,31.50
2019-01-24T10:16:18.846Z,31.57
2019-01-24T10:20:25.478Z,33.53
2019-01-24T10:24:30.178Z,27.03
2019-01-24T10:28:34.874Z,32.43
2019-01-24T10:32:39.569Z,27.97
2019-01-24T10:36:44.280Z,28.63
2019-01-24T10:40:48.967Z,31.97
2019-01-24T10:44:53.671Z,30.47
2019-01-24T10:48:58.372Z,33.63
2019-01-24T10:53:03.077Z,31.37
2019-01-24T10:57:07.776Z,33.00
2019-01-24T11:01:12.471Z,35.37
2019-01-24T11:05:18.906Z,32.33
2019-01-24T11:09:23.604Z,30.93
2019-01-24T11:13:28.304Z,28.87
2019-01-24T11:17:33.007Z,29.67
2019-01-24T11:21:37.695Z,31.53
2019-01-24T11:25:42.393Z,30.57
2019-01-24T11:29:47.091Z,29.43
2019-01-24T11:33:51.789Z,31.67
2019-01-24T11:37:56.493Z,28.73
2019-01-24T11:42:01.180Z,27.63
2019-01-24T11:46:07.218Z,31.13
2019-01-24T11:50:16.590Z,37.13
2019-01-24T11:54:21.295Z,30.03
2019-01-24T11:58:25.996Z,26.03
2019-01-24T12:02:30.695Z,25.60
2019-01-24T12:06:35.395Z,24.43
2019-01-24T12:10:40.161Z,24.17
2019-01-24T12:14:44.860Z,23.27
2019-01-24T12:18:49.556Z,23.27
2019-01-24T12:22:54.245Z,22.03
2019-01-24T12:26:58.937Z,21.83
2019-01-24T12:31:03.645Z,23.07
2019-01-24T12:35:09.681Z,23.87
2019-01-24T12:39:14.377Z,21.83
2019-01-24T12:43:19.061Z,21.17
2019-01-24T12:47:23.764Z,20.67
2019-01-24T12:51:28.469Z,24.10
2019-01-24T12:55:34.130Z,22.17
2019-01-24T12:59:38.825Z,19.47
2019-01-24T13:03:43.819Z,20.47
2019-01-24T13:07:48.517Z,20.63
2019-01-24T13:11:53.216Z,23.20
2019-01-24T13:15:57.918Z,21.53
2019-01-24T13:20:02.613Z,20.23
2019-01-24T13:24:07.306Z,24.00
2019-01-24T13:28:11.996Z,21.27
2019-01-24T13:32:16.708Z,19.43
2019-01-24T13:36:21.406Z,20.63
2019-01-24T13:40:28.801Z,30.37
2019-01-24T13:44:33.510Z,23.20
2019-01-24T13:48:38.206Z,19.77
2019-01-24T13:52:42.900Z,19.33
2019-01-24T13:56:47.597Z,19.73
2019-01-24T14:00:52.292Z,19.87
2019-01-24T14:04:56.983Z,21.57
2019-01-24T14:09:01.685Z,20.43
2019-01-24T14:13:06.383Z,24.07
2019-01-24T14:17:11.087Z,22.00
2019-01-24T14:21:15.786Z,21.33
2019-01-24T14:25:21.279Z,31.40
2019-01-24T14:29:25.982Z,21.43
2019-01-24T14:33:30.676Z,21.50
2019-01-24T14:37:39.798Z,19.47
2019-01-24T14:41:41.773Z,20.17
2019-01-24T14:45:46.457Z,19.47
2019-01-24T14:49:51.165Z,20.17
2019-01-24T14:53:55.863Z,17.53
2019-01-24T14:58:00.575Z,18.67
2019-01-24T15:02:05.331Z,19.03
2019-01-24T15:06:10.019Z,19.27
2019-01-24T15:10:15.459Z,19.83
2019-01-24T15:14:20.152Z,21.43
2019-01-24T15:18:24.852Z,19.07
2019-01-24T15:22:29.549Z,21.80
2019-01-24T15:26:35.084Z,23.97
2019-01-24T15:30:39.786Z,20.10
2019-01-24T15:34:44.478Z,19.57
2019-01-24T15:38:49.176Z,19.73
2019-01-24T15:42:53.896Z,18.50
2019-01-24T15:46:58.581Z,21.43
2019-01-24T15:51:03.284Z,18.93
2019-01-24T15:55:08.626Z,20.83
2019-01-24T15:59:13.318Z,18.57
2019-01-24T16:03:18.029Z,20.70
2019-01-24T16:07:22.727Z,19.83
2019-01-24T16:11:27.430Z,19.97
2019-01-24T16:15:34.272Z,18.47
2019-01-24T16:19:38.967Z,20.07
2019-01-24T16:23:43.667Z,20.47
2019-01-24T16:27:48.354Z,21.73
2019-01-24T16:31:53.053Z,20.93
2019-01-24T16:35:57.764Z,20.97
2019-01-24T16:40:02.467Z,20.27
2019-01-24T16:44:07.165Z,24.73
2019-01-24T16:48:11.883Z,21.27
2019-01-24T16:52:16.570Z,21.47
2019-01-24T16:56:21.269Z,22.20
2019-01-24T17:00:29.230Z,20.60
2019-01-24T17:04:33.921Z,24.83
2019-01-24T17:08:38.622Z,20.23
2019-01-24T17:12:43.311Z,26.43
2019-01-24T17:16:48.012Z,20.17
2019-01-24T17:20:52.708Z,26.23
2019-01-24T17:24:57.410Z,23.37
2019-01-24T17:29:02.283Z,22.57
2019-01-24T17:33:06.982Z,21.50
2019-01-24T17:37:11.670Z,21.13
2019-01-24T17:41:16.371Z,22.17
2019-01-24T17:45:21.073Z,21.60
2019-01-24T17:49:26.842Z,22.23
2019-01-24T17:53:31.551Z,22.53
2019-01-24T17:57:36.243Z,22.63
2019-01-24T18:01:40.942Z,21.83
2019-01-24T18:05:45.639Z,23.20
2019-01-24T18:09:50.341Z,22.73
2019-01-24T18:13:55.032Z,21.67
2019-01-24T18:17:59.733Z,22.33
2019-01-24T18:22:04.603Z,22.03
2019-01-24T18:26:09.305Z,21.30
2019-01-24T18:30:25.514Z,22.80
2019-01-24T18:34:30.198Z,22.93
2019-01-24T18:38:38.572Z,22.53
2019-01-24T18:42:41.308Z,22.10
2019-01-24T18:46:46.009Z,22.80
2019-01-24T18:50:50.772Z,21.60
2019-01-24T18:54:55.456Z,21.87
2019-01-24T18:59:00.162Z,21.00
2019-01-24T19:03:06.207Z,23.40
2019-01-24T19:07:10.901Z,24.47
2019-01-24T19:11:17.299Z,25.33
2019-01-24T19:15:23.432Z,22.60
2019-01-24T19:19:28.128Z,23.80
2019-01-24T19:23:32.830Z,24.13
2019-01-24T19:27:37.526Z,23.17
2019-01-24T19:31:42.224Z,23.90
2019-01-24T19:35:46.918Z,42.13
2019-01-24T19:39:51.616Z,24.73
2019-01-24T19:43:56.311Z,24.60
2019-01-24T19:48:01.005Z,22.47
2019-01-24T19:52:05.701Z,22.10
2019-01-24T19:56:10.387Z,25.27
2019-01-24T20:00:20.700Z,24.57
2019-01-24T20:04:25.394Z,23.07
2019-01-24T20:08:30.092Z,23.07
2019-01-24T20:12:34.796Z,25.20
2019-01-24T20:16:39.487Z,23.63
2019-01-24T20:20:44.185Z,24.10
2019-01-24T20:24:48.883Z,23.33
2019-01-24T20:28:53.588Z,22.90
2019-01-24T20:32:59.541Z,22.67
2019-01-24T20:37:04.233Z,21.80
2019-01-24T20:41:08.924Z,21.57
2019-01-24T20:45:13.789Z,21.63
2019-01-24T20:49:19.557Z,20.97
2019-01-24T20:53:24.258Z,22.13
2019-01-24T20:57:28.944Z,23.33
2019-01-24T21:01:33.653Z,22.17
2019-01-24T21:05:38.332Z,22.00
2019-01-24T21:09:43.028Z,23.67
2019-01-24T21:13:47.726Z,21.80
2019-01-24T21:17:52.488Z,23.17
2019-01-24T21:21:57.185Z,22.70
2019-01-24T21:26:01.885Z,22.77
2019-01-24T21:30:12.637Z,23.77
2019-01-24T21:34:17.338Z,22.00
2019-01-24T21:38:22.284Z,22.53
2019-01-24T21:42:26.978Z,22.73
2019-01-24T21:46:31.679Z,23.37
2019-01-24T21:50:36.378Z,22.27
2019-01-24T21:54:42.140Z,23.47
2019-01-24T21:58:46.828Z,23.37
2019-01-24T22:02:51.525Z,22.67
2019-01-24T22:06:56.288Z,24.23
2019-01-24T22:11:00.916Z,25.00
2019-01-24T22:15:09.003Z,23.33
2019-01-24T22:19:13.703Z,30.67
2019-01-24T22:23:18.399Z,30.57
2019-01-24T22:27:23.104Z,26.37
2019-01-24T22:31:27.799Z,26.97
2019-01-24T22:35:32.488Z,27.33
2019-01-24T22:39:37.184Z,30.00
2019-01-24T22:43:41.886Z,25.77
2019-01-24T22:47:46.652Z,22.60
2019-01-24T22:51:51.347Z,21.60
2019-01-24T22:55:56.038Z,23.33
2019-01-24T23:00:00.739Z,21.67
2019-01-24T23:04:07.278Z,22.53
2019-01-24T23:08:11.981Z,24.40
2019-01-24T23:12:16.669Z,23.47
2019-01-24T23:16:21.352Z,28.40
2019-01-24T23:20:26.053Z,22.93
2019-01-24T23:24:31.725Z,23.50
2019-01-24T23:28:36.417Z,21.47
2019-01-24T23:32:41.117Z,21.50
2019-01-24T23:36:45.812Z,21.27
2019-01-24T23:40:52.134Z,20.07
2019-01-24T23:44:56.830Z,22.13
2019-01-24T23:49:01.530Z,20.97
2019-01-24T23:53:06.234Z,23.30
2019-01-24T23:57:10.921Z,21.43
